createdAt,value
2017-08-01T00:00:29.510Z,76.10
2017-08-01T00:02:57.089Z,73.70
2017-08-01T00:05:24.657Z,73.70
2017-08-01T00:07:52.257Z,75.20
2017-08-01T00:10:19.841Z,75.40
2017-08-01T00:12:47.407Z,74.50
2017-08-01T00:15:15.041Z,74.70
2017-08-01T00:17:42.625Z,76.10
2017-08-01T00:20:10.222Z,78.00
2017-08-01T00:22:37.790Z,78.20
2017-08-01T00:25:05.361Z,78.90
2017-08-01T00:27:32.942Z,79.20
2017-08-01T00:30:01.263Z,78.60
2017-08-01T00:32:28.832Z,78.50
2017-08-01T00:34:56.484Z,79.80
2017-08-01T00:37:24.054Z,82.20
2017-08-01T00:39:51.625Z,83.10
2017-08-01T00:42:19.236Z,84.60
2017-08-01T00:44:47.577Z,86.20
2017-08-01T00:47:15.133Z,86.10
2017-08-01T00:49:42.750Z,86.60
2017-08-01T00:52:10.299Z,85.80
2017-08-01T00:54:37.862Z,83.90
2017-08-01T00:57:05.433Z,84.50
2017-08-01T00:59:33.023Z,85.10
2017-08-01T01:02:00.587Z,85.60
2017-08-01T01:04:28.156Z,85.90
2017-08-01T01:06:55.720Z,86.00
2017-08-01T01:09:23.316Z,86.00
2017-08-01T01:11:50.873Z,85.70
2017-08-01T01:14:19.200Z,86.70
2017-08-01T01:16:46.781Z,86.60
2017-08-01T01:19:14.334Z,87.90
2017-08-01T01:21:41.930Z,87.70
2017-08-01T01:24:09.482Z,87.50
2017-08-01T01:26:37.089Z,86.70
2017-08-01T01:29:04.629Z,86.70
2017-08-01T01:31:32.188Z,86.20
2017-08-01T01:33:59.765Z,87.50
2017-08-01T01:36:27.333Z,88.60
2017-08-01T01:38:54.922Z,88.30
2017-08-01T01:41:22.493Z,87.70
2017-08-01T01:43:50.060Z,87.30
2017-08-01T01:46:17.608Z,87.70
2017-08-01T01:48:45.177Z,86.80
2017-08-01T01:51:12.748Z,86.80
2017-08-01T01:53:40.428Z,85.80
2017-08-01T01:56:07.992Z,86.20
2017-08-01T01:58:35.562Z,85.60
2017-08-01T02:01:03.120Z,87.70
2017-08-01T02:03:30.716Z,88.10
2017-08-01T02:05:58.286Z,87.10
2017-08-01T02:08:25.871Z,88.00
2017-08-01T02:10:53.442Z,87.90
2017-08-01T02:13:21.009Z,88.80
2017-08-01T02:15:49.373Z,88.80
2017-08-01T02:18:17.208Z,88.20
2017-08-01T02:20:44.762Z,88.20
2017-08-01T02:23:12.349Z,88.40
2017-08-01T02:25:39.937Z,88.90
2017-08-01T02:28:07.502Z,88.00
2017-08-01T02:30:35.097Z,88.70
2017-08-01T02:33:02.667Z,89.60
2017-08-01T02:35:30.240Z,90.00
2017-08-01T02:37:57.810Z,90.20
2017-08-01T02:40:25.373Z,89.40
2017-08-01T02:42:52.955Z,90.20
2017-08-01T02:45:20.591Z,90.30
2017-08-01T02:47:48.193Z,90.80
2017-08-01T02:50:16.545Z,89.40
2017-08-01T02:52:44.125Z,89.30
2017-08-01T02:55:11.702Z,90.00
2017-08-01T02:57:40.049Z,90.40
2017-08-01T03:00:07.645Z,90.40
2017-08-01T03:02:35.221Z,90.50
2017-08-01T03:05:02.805Z,90.80
2017-08-01T03:07:30.411Z,90.80
2017-08-01T03:09:58.768Z,91.10
2017-08-01T03:12:26.334Z,91.00
2017-08-01T03:14:53.918Z,91.00
2017-08-01T03:17:22.323Z,91.00
2017-08-01T03:19:49.898Z,91.20
2017-08-01T03:22:17.506Z,91.70
2017-08-01T03:24:45.135Z,91.70
2017-08-01T03:27:12.697Z,91.00
2017-08-01T03:29:40.274Z,91.80
2017-08-01T03:32:07.820Z,91.90
2017-08-01T03:34:35.401Z,92.40
2017-08-01T03:37:02.989Z,92.00
2017-08-01T03:39:30.606Z,92.10
2017-08-01T03:41:58.175Z,92.00
2017-08-01T03:44:25.730Z,91.90
2017-08-01T03:46:53.313Z,92.80
2017-08-01T03:49:20.944Z,92.00
2017-08-01T03:51:48.552Z,91.80
2017-08-01T03:54:16.106Z,91.90
2017-08-01T03:56:43.697Z,92.10
2017-08-01T03:59:11.275Z,91.60
2017-08-01T04:01:38.958Z,91.60
2017-08-01T04:04:06.550Z,91.20
2017-08-01T04:06:34.113Z,91.30
2017-08-01T04:09:01.672Z,91.60
2017-08-01T04:11:29.245Z,91.60
2017-08-01T04:13:57.586Z,92.00
2017-08-01T04:16:25.166Z,91.60
2017-08-01T04:18:52.793Z,91.70
2017-08-01T04:21:20.364Z,91.90
2017-08-01T04:23:47.942Z,91.70
2017-08-01T04:26:15.514Z,91.90
2017-08-01T04:28:43.073Z,92.00
2017-08-01T04:31:10.625Z,92.00
2017-08-01T04:33:38.192Z,91.70
2017-08-01T04:36:05.755Z,91.70
2017-08-01T04:38:33.320Z,91.50
2017-08-01T04:41:00.882Z,91.30
2017-08-01T04:43:28.483Z,91.20
2017-08-01T04:45:56.030Z,91.30
2017-08-01T04:48:23.589Z,91.20
2017-08-01T04:50:51.925Z,90.90
2017-08-01T04:53:19.563Z,91.30
2017-08-01T04:55:47.133Z,90.10
2017-08-01T04:58:14.704Z,88.80
2017-08-01T05:00:42.284Z,85.30
2017-08-01T05:03:09.874Z,80.40
2017-08-01T05:05:38.227Z,70.60
2017-08-01T05:08:05.802Z,70.40
2017-08-01T05:10:33.372Z,67.10
2017-08-01T05:13:00.929Z,67.30
2017-08-01T05:15:29.282Z,67.70
2017-08-01T05:17:56.847Z,67.60
2017-08-01T05:20:24.430Z,64.70
2017-08-01T05:22:52.749Z,60.50
2017-08-01T05:25:20.318Z,60.50
2017-08-01T05:27:47.874Z,58.90
2017-08-01T05:30:15.435Z,57.00
2017-08-01T05:32:43.006Z,54.90
2017-08-01T05:35:10.589Z,53.70
2017-08-01T05:37:38.161Z,51.80
2017-08-01T05:40:05.734Z,51.40
2017-08-01T05:42:34.094Z,52.60
2017-08-01T05:45:01.666Z,52.60
2017-08-01T05:47:29.225Z,53.70
2017-08-01T05:49:56.827Z,51.50
2017-08-01T05:52:24.370Z,53.00
2017-08-01T05:54:52.064Z,55.00
2017-08-01T05:57:19.633Z,57.10
2017-08-01T05:59:47.196Z,57.90
2017-08-01T06:02:14.770Z,58.70
2017-08-01T06:04:42.345Z,61.20
2017-08-01T06:07:09.933Z,61.80
2017-08-01T06:09:38.253Z,59.80
2017-08-01T06:12:05.833Z,59.80
2017-08-01T06:14:33.441Z,58.90
2017-08-01T06:17:01.775Z,55.00
2017-08-01T06:19:29.337Z,55.10
2017-08-01T06:21:56.914Z,55.40
2017-08-01T06:24:24.476Z,51.50
2017-08-01T06:26:52.056Z,49.50
2017-08-01T06:29:20.437Z,47.50
2017-08-01T06:31:48.032Z,47.50
2017-08-01T06:34:15.620Z,46.30
2017-08-01T06:36:43.207Z,45.40
2017-08-01T06:39:10.805Z,44.80
2017-08-01T06:41:38.359Z,43.20
2017-08-01T06:44:05.980Z,43.10
2017-08-01T06:46:33.538Z,44.60
2017-08-01T06:49:01.139Z,45.60
2017-08-01T06:51:29.470Z,50.30
2017-08-01T06:53:57.101Z,50.20
2017-08-01T06:56:24.695Z,52.20
2017-08-01T06:58:52.253Z,54.30
2017-08-01T07:01:20.719Z,55.00
2017-08-01T07:03:48.306Z,57.30
2017-08-01T07:06:15.904Z,58.50
2017-08-01T07:08:43.503Z,60.50
2017-08-01T07:11:11.155Z,61.70
2017-08-01T07:13:38.776Z,61.00
2017-08-01T07:16:07.359Z,59.90
2017-08-01T07:18:34.905Z,60.00
2017-08-01T07:21:02.529Z,61.60
2017-08-01T07:23:30.118Z,63.70
2017-08-01T07:25:57.671Z,66.50
2017-08-01T07:28:25.264Z,67.60
2017-08-01T07:30:53.788Z,63.30
2017-08-01T07:33:21.362Z,63.20
2017-08-01T07:35:49.030Z,64.70
2017-08-01T07:38:16.598Z,65.00
2017-08-01T07:40:44.183Z,67.10
2017-08-01T07:43:11.750Z,65.90
2017-08-01T07:45:40.135Z,65.40
2017-08-01T07:48:08.470Z,67.60
2017-08-01T07:50:36.042Z,66.50
2017-08-01T07:53:03.625Z,68.00
2017-08-01T07:55:31.257Z,68.80
2017-08-01T07:57:59.014Z,68.50
2017-08-01T08:00:26.597Z,69.70
2017-08-01T08:02:54.157Z,67.30
2017-08-01T08:05:21.738Z,68.50
2017-08-01T08:07:49.317Z,68.80
2017-08-01T08:10:16.890Z,69.20
2017-08-01T08:12:44.489Z,69.10
2017-08-01T08:15:12.061Z,67.70
2017-08-01T08:17:39.718Z,64.90
2017-08-01T08:20:07.318Z,62.40
2017-08-01T08:22:35.641Z,64.60
2017-08-01T08:25:03.195Z,64.60
2017-08-01T08:27:30.889Z,64.60
2017-08-01T08:29:58.457Z,65.30
2017-08-01T08:32:26.049Z,67.70
2017-08-01T08:34:54.386Z,70.40
2017-08-01T08:37:21.987Z,70.40
2017-08-01T08:39:50.305Z,70.50
2017-08-01T08:42:17.884Z,70.50
2017-08-01T08:44:45.444Z,71.40
2017-08-01T08:47:13.017Z,72.00
2017-08-01T08:49:40.593Z,72.70
2017-08-01T08:52:08.172Z,72.50
2017-08-01T08:54:36.533Z,72.70
2017-08-01T08:57:04.103Z,72.50
2017-08-01T08:59:31.672Z,73.80
2017-08-01T09:02:00.025Z,74.40
2017-08-01T09:04:27.603Z,74.40
2017-08-01T09:06:55.170Z,74.30
2017-08-01T09:09:23.525Z,74.50
2017-08-01T09:11:51.110Z,74.40
2017-08-01T09:14:18.761Z,72.90
2017-08-01T09:16:46.354Z,74.70
2017-08-01T09:19:13.930Z,76.10
2017-08-01T09:21:41.517Z,78.40
2017-08-01T09:24:09.082Z,81.90
2017-08-01T09:26:36.642Z,85.00
2017-08-01T09:29:04.228Z,86.50
2017-08-01T09:31:31.790Z,90.30
2017-08-01T09:34:00.144Z,90.60
2017-08-01T09:36:27.711Z,90.10
2017-08-01T09:38:55.313Z,87.90
2017-08-01T09:41:23.633Z,90.60
2017-08-01T09:43:51.189Z,89.00
2017-08-01T09:46:18.741Z,90.20
2017-08-01T09:48:46.697Z,91.00
2017-08-01T09:51:14.270Z,90.90
2017-08-01T09:53:41.873Z,91.00
2017-08-01T09:56:09.450Z,91.10
2017-08-01T09:58:37.026Z,90.80
2017-08-01T10:01:04.669Z,90.90
2017-08-01T10:03:32.263Z,89.20
2017-08-01T10:05:59.860Z,86.30
2017-08-01T10:08:27.438Z,84.40
2017-08-01T10:10:55.001Z,80.20
2017-08-01T10:13:22.571Z,79.90
2017-08-01T10:15:50.187Z,78.80
2017-08-01T10:18:17.740Z,81.00
2017-08-01T10:20:45.330Z,75.10
2017-08-01T10:23:12.907Z,66.50
2017-08-01T10:25:40.493Z,59.50
2017-08-01T10:28:08.082Z,57.20
2017-08-01T10:30:35.658Z,58.20
2017-08-01T10:33:03.281Z,58.00
2017-08-01T10:35:30.864Z,58.80
2017-08-01T10:37:58.477Z,57.00
2017-08-01T10:40:26.122Z,56.60
2017-08-01T10:42:53.669Z,54.60
2017-08-01T10:45:21.239Z,52.40
2017-08-01T10:47:48.813Z,53.30
2017-08-01T10:50:16.404Z,55.00
2017-08-01T10:52:43.964Z,57.50
2017-08-01T10:55:12.307Z,58.80
2017-08-01T10:57:39.897Z,58.70
2017-08-01T11:00:08.243Z,59.90
2017-08-01T11:02:35.805Z,59.80
2017-08-01T11:05:03.471Z,60.80
2017-08-01T11:07:31.542Z,61.90
2017-08-01T11:09:59.145Z,63.10
2017-08-01T11:12:27.489Z,60.40
2017-08-01T11:14:55.108Z,60.40
2017-08-01T11:17:22.777Z,59.90
2017-08-01T11:19:50.366Z,59.90
2017-08-01T11:22:18.017Z,60.90
2017-08-01T11:24:45.594Z,60.90
2017-08-01T11:27:13.203Z,60.70
2017-08-01T11:29:40.779Z,62.00
2017-08-01T11:32:08.407Z,63.30
2017-08-01T11:34:35.961Z,63.20
2017-08-01T11:37:04.299Z,63.20
2017-08-01T11:39:31.917Z,63.00
2017-08-01T11:42:00.256Z,63.80
2017-08-01T11:44:27.858Z,63.70
2017-08-01T11:46:56.181Z,62.30
2017-08-01T11:49:23.844Z,62.30
2017-08-01T11:51:52.651Z,61.80
2017-08-01T11:54:20.256Z,64.40
2017-08-01T11:56:47.845Z,65.20
2017-08-01T11:59:15.433Z,66.60
2017-08-01T12:01:43.025Z,66.00
2017-08-01T12:04:11.358Z,66.90
2017-08-01T12:06:43.254Z,66.80
2017-08-01T12:09:10.813Z,68.20
2017-08-01T12:11:38.413Z,69.20
2017-08-01T12:14:05.997Z,70.70
2017-08-01T12:16:33.565Z,71.20
2017-08-01T12:19:01.169Z,70.10
2017-08-01T12:21:29.518Z,67.10
2017-08-01T12:23:57.117Z,67.00
2017-08-01T12:26:25.486Z,69.40
2017-08-01T12:28:53.098Z,69.10
2017-08-01T12:31:20.692Z,69.90
2017-08-01T12:33:48.261Z,71.40
2017-08-01T12:36:15.854Z,71.20
2017-08-01T12:38:43.481Z,72.30
2017-08-01T12:41:11.057Z,70.50
2017-08-01T12:43:39.436Z,67.40
2017-08-01T12:46:07.030Z,66.30
2017-08-01T12:48:34.586Z,65.30
2017-08-01T12:51:02.152Z,67.20
2017-08-01T12:53:29.761Z,67.40
2017-08-01T12:55:57.342Z,66.30
2017-08-01T12:58:25.714Z,64.00
2017-08-01T13:00:53.350Z,63.80
2017-08-01T13:03:20.938Z,65.30
2017-08-01T13:05:48.517Z,64.50
2017-08-01T13:08:16.861Z,67.20
2017-08-01T13:10:44.458Z,67.10
2017-08-01T13:13:12.846Z,64.70
2017-08-01T13:15:40.422Z,64.60
2017-08-01T13:18:08.036Z,64.60
2017-08-01T13:20:35.627Z,64.00
2017-08-01T13:23:03.957Z,61.80
2017-08-01T13:25:32.308Z,61.70
2017-08-01T13:27:59.889Z,61.60
2017-08-01T13:30:27.475Z,64.10
2017-08-01T13:32:55.060Z,63.70
2017-08-01T13:35:23.392Z,65.20
2017-08-01T13:37:50.979Z,65.00
2017-08-01T13:40:18.604Z,65.40
2017-08-01T13:42:46.190Z,68.20
2017-08-01T13:45:13.808Z,67.10
2017-08-01T13:47:41.376Z,64.60
2017-08-01T13:50:08.952Z,67.50
2017-08-01T13:52:36.534Z,67.90
2017-08-01T13:55:04.133Z,66.90
2017-08-01T13:57:32.486Z,67.00
2017-08-01T14:00:00.050Z,66.00
2017-08-01T14:02:27.626Z,65.00
2017-08-01T14:04:55.185Z,63.10
2017-08-01T14:07:22.785Z,64.70
2017-08-01T14:09:50.354Z,63.50
2017-08-01T14:12:18.021Z,64.70
2017-08-01T14:14:45.621Z,66.10
2017-08-01T14:17:13.212Z,63.10
2017-08-01T14:19:40.801Z,64.00
2017-08-01T14:22:08.404Z,64.00
2017-08-01T14:24:35.982Z,64.50
2017-08-01T14:27:04.330Z,67.40
2017-08-01T14:29:31.910Z,67.30
2017-08-01T14:31:59.490Z,66.70
2017-08-01T14:34:27.819Z,66.90
2017-08-01T14:36:55.423Z,66.80
2017-08-01T14:39:23.842Z,65.90
2017-08-01T14:41:51.431Z,65.80
2017-08-01T14:44:19.053Z,67.30
2017-08-01T14:46:46.643Z,68.50
2017-08-01T14:49:14.235Z,69.00
2017-08-01T14:51:41.831Z,71.20
2017-08-01T14:54:09.426Z,67.20
2017-08-01T14:56:36.994Z,65.40
2017-08-01T14:59:04.557Z,65.30
2017-08-01T15:01:32.194Z,65.00
2017-08-01T15:03:59.754Z,62.40
2017-08-01T15:06:27.355Z,63.10
2017-08-01T15:08:54.921Z,62.20
2017-08-01T15:11:22.500Z,61.80
2017-08-01T15:13:50.853Z,60.30
2017-08-01T15:16:18.429Z,59.50
2017-08-01T15:18:46.295Z,60.40
2017-08-01T15:21:13.885Z,59.80
2017-08-01T15:23:41.469Z,60.30
2017-08-01T15:26:09.061Z,61.50
2017-08-01T15:28:36.626Z,61.50
2017-08-01T15:31:04.235Z,63.00
2017-08-01T15:33:31.847Z,61.70
2017-08-01T15:35:59.408Z,60.10
2017-08-01T15:38:27.011Z,59.00
2017-08-01T15:40:55.375Z,61.60
2017-08-01T15:43:23.707Z,59.80
2017-08-01T15:45:51.290Z,59.80
2017-08-01T15:48:18.973Z,60.60
2017-08-01T15:50:46.554Z,57.90
2017-08-01T15:53:14.904Z,59.20
2017-08-01T15:55:42.488Z,59.10
2017-08-01T15:58:10.837Z,62.60
2017-08-01T16:00:38.446Z,62.50
2017-08-01T16:03:06.788Z,58.80
2017-08-01T16:05:34.380Z,58.70
2017-08-01T16:08:02.702Z,61.10
2017-08-01T16:10:30.310Z,61.10
2017-08-01T16:12:58.658Z,58.60
2017-08-01T16:15:26.236Z,58.50
2017-08-01T16:17:53.823Z,59.10
2017-08-01T16:20:22.166Z,63.20
2017-08-01T16:22:49.747Z,63.30
2017-08-01T16:25:18.082Z,60.00
2017-08-01T16:27:45.783Z,59.90
2017-08-01T16:30:13.343Z,61.40
2017-08-01T16:32:41.710Z,61.40
2017-08-01T16:35:09.283Z,62.10
2017-08-01T16:37:37.657Z,63.20
2017-08-01T16:40:05.269Z,63.00
2017-08-01T16:42:32.865Z,63.50
2017-08-01T16:45:00.461Z,65.50
2017-08-01T16:47:28.786Z,62.50
2017-08-01T16:49:56.404Z,62.40
2017-08-01T16:52:24.774Z,63.10
2017-08-01T16:54:52.353Z,63.00
2017-08-01T16:57:20.009Z,65.30
2017-08-01T16:59:48.348Z,65.10
2017-08-01T17:02:15.926Z,64.90
2017-08-01T17:04:43.507Z,66.30
2017-08-01T17:07:11.865Z,67.50
2017-08-01T17:09:39.452Z,67.40
2017-08-01T17:12:07.812Z,68.50
2017-08-01T17:14:35.426Z,68.40
2017-08-01T17:17:03.063Z,68.30
2017-08-01T17:19:30.708Z,69.70
2017-08-01T17:21:59.047Z,70.90
2017-08-01T17:24:26.628Z,70.80
2017-08-01T17:26:54.225Z,70.90
2017-08-01T17:29:22.573Z,70.40
2017-08-01T17:31:50.144Z,70.30
2017-08-01T17:34:17.746Z,71.10
2017-08-01T17:36:45.305Z,70.40
2017-08-01T17:39:12.901Z,69.20
2017-08-01T17:41:40.522Z,70.10
2017-08-01T17:44:08.086Z,70.20
2017-08-01T17:46:35.686Z,70.60
2017-08-01T17:49:03.275Z,71.60
2017-08-01T17:51:30.865Z,72.80
2017-08-01T17:53:58.454Z,71.70
2017-08-01T17:56:26.049Z,72.80
2017-08-01T17:58:53.650Z,74.00
2017-08-01T18:01:21.239Z,74.10
2017-08-01T18:03:49.601Z,75.40
2017-08-01T18:06:17.294Z,75.90
2017-08-01T18:08:44.869Z,77.00
2017-08-01T18:11:12.480Z,73.80
2017-08-01T18:13:40.081Z,74.50
2017-08-01T18:16:07.679Z,75.10
2017-08-01T18:18:36.007Z,74.40
2017-08-01T18:21:03.621Z,74.30
2017-08-01T18:23:31.952Z,75.50
2017-08-01T18:25:59.522Z,75.50
2017-08-01T18:28:27.123Z,77.30
2017-08-01T18:30:55.441Z,78.50
2017-08-01T18:33:23.142Z,78.40
2017-08-01T18:35:50.718Z,78.00
2017-08-01T18:38:18.364Z,77.80
2017-08-01T18:40:45.925Z,78.90
2017-08-01T18:43:13.530Z,78.70
2017-08-01T18:45:41.127Z,79.50
2017-08-01T18:48:08.733Z,80.80
2017-08-01T18:50:37.074Z,81.00
2017-08-01T18:53:04.682Z,80.30
2017-08-01T18:55:32.246Z,78.90
2017-08-01T18:57:59.828Z,79.00
2017-08-01T19:00:27.414Z,79.90
2017-08-01T19:02:54.982Z,80.40
2017-08-01T19:05:22.599Z,81.40
2017-08-01T19:07:50.167Z,80.10
2017-08-01T19:10:17.730Z,80.20
2017-08-01T19:12:45.338Z,80.60
2017-08-01T19:15:12.941Z,80.20
2017-08-01T19:17:40.516Z,80.50
2017-08-01T19:20:08.069Z,80.10
2017-08-01T19:22:35.658Z,81.50
2017-08-01T19:25:03.241Z,81.90
2017-08-01T19:27:30.867Z,82.00
2017-08-01T19:29:58.462Z,81.40
2017-08-01T19:32:26.046Z,80.90
2017-08-01T19:34:53.678Z,81.40
2017-08-01T19:37:21.257Z,82.30
2017-08-01T19:39:48.858Z,82.20
2017-08-01T19:42:16.441Z,82.20
2017-08-01T19:44:44.023Z,82.30
2017-08-01T19:47:12.901Z,83.10
2017-08-01T19:49:40.460Z,83.30
2017-08-01T19:52:11.045Z,83.70
2017-08-01T19:54:38.657Z,83.60
2017-08-01T19:57:06.227Z,82.40
2017-08-01T19:59:33.847Z,82.30
2017-08-01T20:02:01.434Z,83.20
2017-08-01T20:04:29.048Z,83.80
2017-08-01T20:06:57.386Z,84.10
2017-08-01T20:09:24.954Z,84.00
2017-08-01T20:11:52.578Z,83.80
2017-08-01T20:14:20.147Z,83.40
2017-08-01T20:16:47.725Z,84.00
2017-08-01T20:19:15.317Z,84.50
2017-08-01T20:21:42.877Z,84.90
2017-08-01T20:24:10.473Z,85.00
2017-08-01T20:26:38.082Z,84.20
2017-08-01T20:29:05.706Z,85.60
2017-08-01T20:31:33.305Z,86.70
2017-08-01T20:34:00.902Z,86.30
2017-08-01T20:36:29.280Z,88.20
2017-08-01T20:38:56.864Z,88.20
2017-08-01T20:41:24.449Z,87.20
2017-08-01T20:43:52.053Z,88.20
2017-08-01T20:46:19.607Z,88.40
2017-08-01T20:48:47.301Z,89.00
2017-08-01T20:51:14.871Z,90.00
2017-08-01T20:53:42.462Z,89.40
2017-08-01T20:56:10.033Z,89.50
2017-08-01T20:58:37.617Z,90.20
2017-08-01T21:01:05.191Z,90.00
2017-08-01T21:03:32.813Z,90.20
2017-08-01T21:06:00.413Z,90.10
2017-08-01T21:08:27.983Z,90.30
2017-08-01T21:10:55.573Z,90.30
2017-08-01T21:13:23.186Z,90.50
2017-08-01T21:15:50.791Z,90.70
2017-08-01T21:18:18.356Z,90.30
2017-08-01T21:20:45.969Z,90.60
2017-08-01T21:23:13.563Z,90.90
2017-08-01T21:25:41.134Z,90.80
2017-08-01T21:28:08.714Z,91.00
2017-08-01T21:30:36.306Z,91.20
2017-08-01T21:33:04.050Z,91.10
2017-08-01T21:35:31.636Z,91.90
2017-08-01T21:37:59.197Z,92.60
2017-08-01T21:40:26.782Z,92.40
2017-08-01T21:42:54.373Z,92.60
2017-08-01T21:45:22.166Z,92.90
2017-08-01T21:47:49.825Z,93.20
2017-08-01T21:50:17.395Z,93.30
2017-08-01T21:52:45.112Z,93.50
2017-08-01T21:55:12.689Z,93.80
2017-08-01T21:57:40.290Z,94.00
2017-08-01T22:00:07.880Z,94.40
2017-08-01T22:02:36.233Z,94.60
2017-08-01T22:05:03.855Z,94.50
2017-08-01T22:07:31.420Z,94.60
2017-08-01T22:09:59.038Z,94.90
2017-08-01T22:12:27.383Z,95.20
2017-08-01T22:14:54.960Z,94.80
2017-08-01T22:17:22.630Z,95.30
2017-08-01T22:19:50.197Z,95.70
2017-08-01T22:22:17.802Z,95.70
2017-08-01T22:24:45.435Z,95.70
2017-08-01T22:27:13.038Z,95.90
2017-08-01T22:29:40.619Z,95.90
2017-08-01T22:32:08.193Z,95.70
2017-08-01T22:34:35.774Z,95.70
2017-08-01T22:37:04.134Z,95.20
2017-08-01T22:39:31.758Z,95.20
2017-08-01T22:41:59.338Z,95.20
2017-08-01T22:44:26.918Z,94.70
2017-08-01T22:46:54.482Z,94.70
2017-08-01T22:49:22.090Z,95.10
2017-08-01T22:51:50.237Z,95.10
2017-08-01T22:54:17.796Z,95.20
2017-08-01T22:56:45.399Z,95.50
2017-08-01T22:59:13.030Z,95.90
2017-08-01T23:01:40.605Z,95.90
2017-08-01T23:04:08.186Z,95.90
2017-08-01T23:06:35.806Z,95.90
2017-08-01T23:09:03.360Z,96.20
2017-08-01T23:11:30.940Z,96.30
2017-08-01T23:13:58.537Z,96.20
2017-08-01T23:16:26.133Z,96.30
2017-08-01T23:18:53.740Z,96.30
2017-08-01T23:21:21.386Z,96.30
2017-08-01T23:23:48.969Z,96.30
2017-08-01T23:26:16.540Z,96.40
2017-08-01T23:28:44.129Z,96.90
2017-08-01T23:31:11.713Z,96.20
2017-08-01T23:33:40.061Z,97.10
2017-08-01T23:36:07.634Z,97.00
2017-08-01T23:38:35.261Z,97.20
2017-08-01T23:41:02.837Z,97.30
2017-08-01T23:43:30.437Z,97.30
2017-08-01T23:45:58.777Z,97.80
2017-08-01T23:48:26.366Z,97.40
2017-08-01T23:50:54.705Z,97.50
2017-08-01T23:53:22.286Z,97.50
2017-08-01T23:55:49.896Z,97.50
2017-08-01T23:58:17.459Z,97.60
